createdAt,value
2023-01-10T00:00:27.679Z,2.03
2023-01-10T00:02:54.715Z,0.70
2023-01-10T00:05:21.457Z,0.75
2023-01-10T00:07:48.315Z,0.70
2023-01-10T00:10:15.242Z,1.00
2023-01-10T00:13:03.443Z,1.02
2023-01-10T00:15:33.218Z,0.95
2023-01-10T00:17:59.923Z,0.82
2023-01-10T00:20:26.588Z,1.20
2023-01-10T00:22:53.249Z,1.15
2023-01-10T00:25:21.141Z,2.28
2023-01-10T00:28:07.471Z,2.28
2023-01-10T00:30:35.204Z,1.42
2023-01-10T00:33:02.678Z,1.10
2023-01-10T00:35:29.340Z,1.08
2023-01-10T00:38:01.362Z,1.33
2023-01-10T00:40:28.021Z,1.88
2023-01-10T00:43:13.141Z,1.05
2023-01-10T00:45:39.800Z,1.08
2023-01-10T00:48:06.526Z,1.50
2023-01-10T00:50:33.289Z,1.05
2023-01-10T00:52:59.956Z,1.05
2023-01-10T00:55:26.752Z,1.33
2023-01-10T00:57:53.512Z,1.05
2023-01-10T01:00:20.236Z,1.02
2023-01-10T01:02:48.423Z,0.82
2023-01-10T01:05:15.196Z,1.20
2023-01-10T01:07:41.856Z,0.80
2023-01-10T01:10:27.563Z,0.88
2023-01-10T01:12:55.792Z,2.57
2023-01-10T01:15:23.276Z,1.55
2023-01-10T01:17:50.000Z,2.00
2023-01-10T01:20:16.877Z,1.20
2023-01-10T01:22:43.658Z,1.42
2023-01-10T01:25:10.527Z,1.15
2023-01-10T01:27:38.154Z,2.33
2023-01-10T01:30:09.355Z,1.98
2023-01-10T01:32:35.995Z,4.05
2023-01-10T01:35:02.874Z,1.30
2023-01-10T01:37:29.606Z,1.27
2023-01-10T01:39:56.270Z,1.05
2023-01-10T01:42:34.436Z,0.70
2023-01-10T01:45:25.033Z,1.05
2023-01-10T01:48:30.150Z,0.73
2023-01-10T01:51:05.232Z,1.00
2023-01-10T01:53:43.520Z,1.35
2023-01-10T01:56:19.677Z,1.30
2023-01-10T01:59:09.611Z,0.85
2023-01-10T02:01:40.308Z,1.42
2023-01-10T02:04:13.619Z,1.15
2023-01-10T02:06:41.326Z,0.82
2023-01-10T02:09:32.470Z,0.80
2023-01-10T02:11:59.483Z,1.00
2023-01-10T02:14:26.799Z,0.80
2023-01-10T02:16:53.523Z,1.00
2023-01-10T02:20:01.662Z,1.10
2023-01-10T02:22:47.244Z,0.77
2023-01-10T02:25:19.604Z,1.20
2023-01-10T02:28:16.156Z,1.10
2023-01-10T02:30:51.970Z,1.15
2023-01-10T02:33:29.999Z,1.05
2023-01-10T02:36:05.360Z,1.20
2023-01-10T02:38:38.079Z,1.10
2023-01-10T02:41:18.913Z,1.17
2023-01-10T02:43:55.144Z,1.20
2023-01-10T02:46:27.523Z,0.95
2023-01-10T02:48:55.478Z,1.23
2023-01-10T02:51:27.701Z,1.20
2023-01-10T02:54:23.317Z,1.13
2023-01-10T02:57:05.032Z,1.48
2023-01-10T02:59:37.729Z,1.75
2023-01-10T03:02:21.812Z,1.48
2023-01-10T03:05:29.222Z,1.40
2023-01-10T03:08:04.888Z,1.50
2023-01-10T03:10:47.721Z,1.23
2023-01-10T03:13:24.866Z,1.60
2023-01-10T03:15:54.411Z,1.02
2023-01-10T03:18:27.033Z,1.25
2023-01-10T03:20:56.421Z,1.30
2023-01-10T03:23:24.473Z,1.40
2023-01-10T03:25:53.353Z,1.00
2023-01-10T03:28:32.075Z,1.58
2023-01-10T03:31:02.194Z,1.30
2023-01-10T03:33:31.900Z,1.48
2023-01-10T03:36:16.786Z,1.25
2023-01-10T03:39:02.549Z,1.02
2023-01-10T03:41:47.785Z,1.60
2023-01-10T03:44:44.854Z,1.10
2023-01-10T03:50:19.446Z,2.13
2023-01-10T03:52:46.503Z,1.00
2023-01-10T03:55:17.968Z,1.05
2023-01-10T03:57:48.908Z,1.08
2023-01-10T04:00:16.703Z,1.10
2023-01-10T04:02:44.414Z,1.48
2023-01-10T04:05:11.548Z,1.25
2023-01-10T04:07:38.361Z,1.10
2023-01-10T04:10:06.449Z,1.50
2023-01-10T04:12:33.415Z,1.00
2023-01-10T04:15:01.321Z,1.40
2023-01-10T04:17:28.007Z,1.13
2023-01-10T04:19:55.052Z,1.00
2023-01-10T04:22:21.716Z,1.30
2023-01-10T04:24:51.102Z,1.40
2023-01-10T04:27:18.350Z,1.25
2023-01-10T04:29:45.043Z,1.30
2023-01-10T04:32:11.781Z,1.10
2023-01-10T04:34:38.479Z,1.02
2023-01-10T04:37:05.206Z,1.88
2023-01-10T04:39:31.877Z,1.40
2023-01-10T04:41:58.536Z,1.17
2023-01-10T04:44:25.249Z,2.05
2023-01-10T04:46:51.911Z,1.60
2023-01-10T04:49:18.575Z,1.25
2023-01-10T04:51:45.256Z,1.30
2023-01-10T04:54:11.893Z,1.48
2023-01-10T04:56:38.642Z,1.50
2023-01-10T04:59:06.563Z,1.25
2023-01-10T05:01:35.281Z,1.30
2023-01-10T05:04:03.300Z,1.65
2023-01-10T05:06:29.997Z,1.27
2023-01-10T05:08:56.974Z,1.38
2023-01-10T05:11:24.006Z,1.38
2023-01-10T05:13:51.245Z,1.00
2023-01-10T05:16:18.057Z,1.17
2023-01-10T05:18:45.112Z,1.45
2023-01-10T05:21:14.373Z,1.40
2023-01-10T05:23:41.324Z,1.25
2023-01-10T05:26:10.883Z,1.60
2023-01-10T05:28:38.572Z,1.60
2023-01-10T05:31:11.339Z,1.23
2023-01-10T05:33:38.018Z,1.55
2023-01-10T05:36:06.330Z,1.98
2023-01-10T05:38:33.524Z,1.40
2023-01-10T05:41:00.821Z,1.60
2023-01-10T05:43:28.160Z,1.52
2023-01-10T05:45:55.064Z,1.38
2023-01-10T05:48:22.295Z,1.83
2023-01-10T05:50:52.449Z,1.60
2023-01-10T05:53:19.870Z,1.70
2023-01-10T05:56:12.811Z,1.83
2023-01-10T05:58:39.501Z,2.10
2023-01-10T06:01:06.289Z,2.13
2023-01-10T06:03:33.047Z,1.67
2023-01-10T06:05:59.691Z,1.88
2023-01-10T06:08:26.480Z,2.13
2023-01-10T06:10:53.190Z,2.25
2023-01-10T06:13:19.831Z,2.03
2023-01-10T06:15:47.014Z,2.00
2023-01-10T06:18:14.364Z,2.47
2023-01-10T06:20:43.886Z,2.22
2023-01-10T06:23:10.819Z,2.30
2023-01-10T06:25:40.335Z,2.33
2023-01-10T06:28:08.574Z,1.75
2023-01-10T06:30:35.387Z,2.13
2023-01-10T06:33:03.620Z,2.30
2023-01-10T06:35:30.713Z,2.25
2023-01-10T06:37:58.242Z,2.75
2023-01-10T06:40:25.773Z,2.45
2023-01-10T06:42:52.775Z,1.55
2023-01-10T06:45:19.955Z,2.30
2023-01-10T06:47:46.692Z,2.40
2023-01-10T06:50:14.004Z,2.10
2023-01-10T06:52:41.823Z,1.80
2023-01-10T06:55:09.033Z,1.48
2023-01-10T06:57:35.897Z,1.90
2023-01-10T07:00:08.116Z,1.63
2023-01-10T07:02:35.141Z,3.40
2023-01-10T07:05:02.080Z,2.40
2023-01-10T07:07:28.792Z,2.80
2023-01-10T07:09:56.290Z,2.38
2023-01-10T07:12:23.011Z,1.83
2023-01-10T07:14:49.649Z,3.35
2023-01-10T07:17:16.383Z,2.17
2023-01-10T07:19:43.064Z,1.83
2023-01-10T07:22:09.811Z,2.55
2023-01-10T07:24:36.460Z,1.80
2023-01-10T07:27:03.278Z,2.08
2023-01-10T07:29:29.967Z,1.60
2023-01-10T07:31:56.641Z,1.80
2023-01-10T07:34:23.299Z,1.83
2023-01-10T07:36:49.998Z,1.95
2023-01-10T07:39:16.648Z,2.10
2023-01-10T07:41:43.325Z,3.33
2023-01-10T07:44:10.056Z,3.08
2023-01-10T07:46:36.791Z,2.72
2023-01-10T07:49:03.495Z,3.17
2023-01-10T07:51:30.178Z,2.72
2023-01-10T07:53:56.878Z,4.28
2023-01-10T07:56:23.932Z,4.30
2023-01-10T07:58:50.802Z,3.78
2023-01-10T08:01:17.540Z,3.58
2023-01-10T08:03:44.331Z,5.57
2023-01-10T08:06:11.493Z,4.68
2023-01-10T08:08:38.978Z,4.78
2023-01-10T08:11:06.285Z,12.43
2023-01-10T08:13:33.158Z,8.40
2023-01-10T08:16:00.258Z,25.33
2023-01-10T08:18:27.955Z,28.35
2023-01-10T08:20:54.651Z,15.30
2023-01-10T08:23:21.960Z,5.32
2023-01-10T08:25:49.907Z,4.90
2023-01-10T08:28:16.732Z,3.65
2023-01-10T08:30:44.005Z,4.00
2023-01-10T08:33:12.288Z,3.78
2023-01-10T08:35:43.302Z,3.80
2023-01-10T08:38:11.344Z,3.05
2023-01-10T08:40:38.038Z,3.03
2023-01-10T08:43:07.696Z,2.63
2023-01-10T08:45:35.239Z,2.35
2023-01-10T08:48:02.429Z,2.13
2023-01-10T08:50:29.752Z,3.08
2023-01-10T08:53:00.358Z,5.85
2023-01-10T08:55:28.337Z,3.03
2023-01-10T08:57:55.181Z,2.90
2023-01-10T09:00:22.439Z,2.70
2023-01-10T09:02:49.191Z,3.38
2023-01-10T09:05:27.185Z,2.75
2023-01-10T09:08:00.151Z,4.60
2023-01-10T09:10:30.769Z,4.80
2023-01-10T09:12:59.933Z,3.80
2023-01-10T09:15:30.156Z,2.60
2023-01-10T09:18:02.248Z,1.98
2023-01-10T09:20:30.000Z,1.98
2023-01-10T09:22:58.461Z,2.00
2023-01-10T09:25:25.313Z,2.20
2023-01-10T09:28:00.154Z,2.00
2023-01-10T09:30:28.594Z,1.67
2023-01-10T09:32:57.103Z,2.10
2023-01-10T09:35:25.274Z,1.42
2023-01-10T09:37:58.881Z,2.35
2023-01-10T09:41:03.173Z,2.90
2023-01-10T09:43:50.757Z,2.40
2023-01-10T09:46:46.499Z,3.50
2023-01-10T09:49:25.600Z,2.58
2023-01-10T09:51:58.305Z,2.08
2023-01-10T09:54:32.230Z,2.83
2023-01-10T09:57:01.181Z,2.67
2023-01-10T09:59:37.232Z,3.40
2023-01-10T10:02:34.835Z,2.67
2023-01-10T10:05:04.737Z,2.88
2023-01-10T10:07:31.404Z,2.55
2023-01-10T10:09:58.455Z,2.42
2023-01-10T10:12:37.650Z,3.85
2023-01-10T10:15:39.858Z,1.90
2023-01-10T10:18:27.188Z,3.33
2023-01-10T10:21:03.126Z,3.55
2023-01-10T10:23:48.716Z,3.75
2023-01-10T10:26:25.014Z,3.13
2023-01-10T10:29:22.692Z,3.40
2023-01-10T10:32:21.546Z,3.13
2023-01-10T10:34:56.321Z,2.28
2023-01-10T10:37:32.915Z,2.42
2023-01-10T10:40:14.677Z,1.90
2023-01-10T10:42:47.227Z,2.30
2023-01-10T10:45:39.433Z,3.67
2023-01-10T10:48:20.918Z,4.55
2023-01-10T10:51:02.326Z,3.83
2023-01-10T10:53:31.344Z,3.38
2023-01-10T10:55:58.722Z,2.83
2023-01-10T10:58:26.101Z,2.28
2023-01-10T11:00:53.299Z,4.15
2023-01-10T11:03:49.895Z,2.00
2023-01-10T11:06:19.243Z,2.30
2023-01-10T11:08:48.133Z,3.53
2023-01-10T11:11:31.586Z,2.63
2023-01-10T11:14:04.460Z,9.88
2023-01-10T11:16:32.610Z,4.90
2023-01-10T11:19:24.675Z,2.15
2023-01-10T11:21:54.128Z,2.65
2023-01-10T11:24:36.045Z,2.28
2023-01-10T11:27:15.139Z,1.45
2023-01-10T11:29:50.260Z,2.67
2023-01-10T11:32:19.056Z,2.25
2023-01-10T11:34:58.890Z,2.58
2023-01-10T11:37:32.533Z,2.67
2023-01-10T11:40:20.675Z,2.15
2023-01-10T11:42:47.817Z,1.92
2023-01-10T11:45:17.509Z,1.95
2023-01-10T11:47:45.945Z,1.65
2023-01-10T11:50:17.732Z,2.00
2023-01-10T11:52:46.172Z,2.08
2023-01-10T11:55:28.919Z,1.52
2023-01-10T11:58:11.159Z,1.70
2023-01-10T12:00:47.449Z,2.45
2023-01-10T12:03:37.096Z,3.78
2023-01-10T12:06:08.509Z,2.78
2023-01-10T12:08:38.141Z,2.92
2023-01-10T12:11:06.288Z,2.00
2023-01-10T12:13:51.119Z,2.13
2023-01-10T12:16:28.196Z,2.35
2023-01-10T12:18:59.724Z,2.78
2023-01-10T12:21:29.643Z,2.78
2023-01-10T12:24:00.623Z,2.22
2023-01-10T12:26:31.291Z,2.60
2023-01-10T12:29:01.524Z,2.28
2023-01-10T12:31:31.120Z,2.50
2023-01-10T12:34:07.090Z,1.88
2023-01-10T12:36:44.765Z,1.98
2023-01-10T12:39:23.518Z,1.92
2023-01-10T12:42:23.937Z,2.17
2023-01-10T12:45:18.991Z,1.83
2023-01-10T12:48:03.914Z,2.45
2023-01-10T12:50:44.893Z,2.38
2023-01-10T12:53:29.881Z,2.28
2023-01-10T12:56:00.339Z,3.05
2023-01-10T12:59:01.872Z,2.05
2023-01-10T13:01:35.435Z,2.35
2023-01-10T13:04:15.599Z,2.08
2023-01-10T13:06:43.903Z,2.03
2023-01-10T13:09:22.598Z,1.77
2023-01-10T13:11:52.115Z,2.55
2023-01-10T13:14:25.074Z,2.00
2023-01-10T13:17:34.850Z,1.75
2023-01-10T13:20:16.812Z,2.17
2023-01-10T13:22:45.530Z,2.33
2023-01-10T13:25:25.596Z,2.70
2023-01-10T13:28:15.175Z,1.83
2023-01-10T13:30:42.233Z,1.90
2023-01-10T13:33:32.225Z,2.08
2023-01-10T13:36:11.596Z,2.55
2023-01-10T13:38:49.943Z,2.38
2023-01-10T13:41:36.111Z,2.30
2023-01-10T13:44:13.099Z,1.83
2023-01-10T13:46:45.551Z,2.28
2023-01-10T13:49:12.171Z,2.90
2023-01-10T13:51:39.915Z,2.30
2023-01-10T13:54:18.693Z,3.25
2023-01-10T13:56:45.738Z,2.40
2023-01-10T13:59:18.551Z,1.88
2023-01-10T14:02:09.987Z,1.85
2023-01-10T14:04:45.485Z,2.03
2023-01-10T14:07:33.294Z,4.07
2023-01-10T14:10:18.767Z,2.75
2023-01-10T14:13:12.120Z,3.67
2023-01-10T14:15:41.812Z,2.33
2023-01-10T14:18:19.444Z,3.42
2023-01-10T14:21:01.615Z,2.22
2023-01-10T14:23:56.865Z,2.33
2023-01-10T14:26:36.737Z,2.30
2023-01-10T14:29:12.623Z,2.22
2023-01-10T14:31:44.160Z,2.05
2023-01-10T14:34:18.004Z,2.00
2023-01-10T14:36:57.481Z,4.38
2023-01-10T14:39:26.145Z,2.90
2023-01-10T14:41:57.148Z,2.95
2023-01-10T14:45:03.794Z,2.90
2023-01-10T14:47:33.632Z,3.33
2023-01-10T14:50:04.518Z,3.65
2023-01-10T14:52:31.513Z,8.68
2023-01-10T14:55:10.083Z,11.43
2023-01-10T14:57:36.896Z,3.42
2023-01-10T15:00:17.794Z,5.47
2023-01-10T15:02:48.783Z,12.63
2023-01-10T15:05:25.982Z,4.85
2023-01-10T15:08:15.140Z,3.55
2023-01-10T15:10:44.000Z,3.78
2023-01-10T15:13:15.661Z,7.70
2023-01-10T15:15:45.683Z,3.90
2023-01-10T15:18:27.563Z,2.78
2023-01-10T15:20:55.276Z,3.80
2023-01-10T15:23:23.254Z,3.67
2023-01-10T15:26:02.696Z,7.18
2023-01-10T15:28:30.201Z,3.28
2023-01-10T15:30:58.377Z,3.50
2023-01-10T15:33:30.325Z,3.22
2023-01-10T15:36:03.199Z,2.47
2023-01-10T15:38:34.006Z,5.40
2023-01-10T15:41:05.889Z,9.52
2023-01-10T15:43:36.942Z,5.80
2023-01-10T15:46:06.179Z,5.22
2023-01-10T15:48:43.824Z,4.65
2023-01-10T15:51:22.568Z,4.95
2023-01-10T15:54:07.452Z,3.50
2023-01-10T15:56:49.584Z,2.90
2023-01-10T15:59:23.862Z,4.68
2023-01-10T16:02:06.421Z,4.00
2023-01-10T16:04:35.544Z,6.30
2023-01-10T16:07:08.909Z,5.22
2023-01-10T16:09:36.286Z,4.22
2023-01-10T16:12:21.822Z,4.38
2023-01-10T16:14:48.650Z,3.55
2023-01-10T16:17:15.327Z,3.50
2023-01-10T16:19:42.031Z,4.05
2023-01-10T16:22:12.589Z,3.42
2023-01-10T16:24:42.684Z,4.20
2023-01-10T16:27:10.489Z,3.58
2023-01-10T16:29:37.594Z,3.25
2023-01-10T16:32:14.360Z,3.20
2023-01-10T16:34:41.009Z,4.25
2023-01-10T16:37:08.588Z,3.63
2023-01-10T16:39:35.284Z,3.05
2023-01-10T16:42:20.414Z,3.22
2023-01-10T16:44:47.122Z,4.72
2023-01-10T16:47:13.808Z,4.00
2023-01-10T16:49:41.703Z,3.85
2023-01-10T16:52:13.575Z,5.25
2023-01-10T16:54:40.327Z,3.95
2023-01-10T16:57:06.979Z,5.05
2023-01-10T16:59:33.620Z,5.32
2023-01-10T17:02:00.437Z,5.53
2023-01-10T17:04:31.211Z,4.90
2023-01-10T17:06:59.084Z,4.88
2023-01-10T17:09:31.826Z,4.85
2023-01-10T17:12:03.196Z,4.53
2023-01-10T17:14:32.450Z,5.38
2023-01-10T17:16:59.142Z,3.47
2023-01-10T17:19:25.807Z,4.05
2023-01-10T17:21:52.505Z,4.32
2023-01-10T17:24:19.751Z,4.05
2023-01-10T17:26:46.516Z,5.40
2023-01-10T17:29:13.181Z,6.03
2023-01-10T17:31:39.986Z,4.63
2023-01-10T17:34:07.150Z,4.10
2023-01-10T17:36:38.585Z,4.80
2023-01-10T17:39:06.203Z,3.85
2023-01-10T17:41:33.261Z,5.57
2023-01-10T17:43:59.951Z,5.00
2023-01-10T17:46:26.679Z,5.78
2023-01-10T17:48:53.414Z,5.80
2023-01-10T17:51:20.280Z,6.78
2023-01-10T17:53:46.959Z,6.53
2023-01-10T17:56:14.469Z,5.00
2023-01-10T17:58:41.272Z,5.68
2023-01-10T18:01:19.050Z,5.75
2023-01-10T18:03:45.852Z,5.32
2023-01-10T18:06:23.432Z,5.70
2023-01-10T18:08:51.330Z,4.82
2023-01-10T18:11:18.161Z,4.18
2023-01-10T18:13:44.958Z,3.90
2023-01-10T18:16:11.616Z,4.93
2023-01-10T18:18:39.041Z,4.22
2023-01-10T18:21:16.247Z,4.22
2023-01-10T18:23:43.113Z,4.60
2023-01-10T18:26:12.207Z,4.13
2023-01-10T18:28:42.562Z,5.20
2023-01-10T18:31:15.975Z,4.00
2023-01-10T18:33:43.127Z,4.00
2023-01-10T18:36:15.148Z,4.28
2023-01-10T18:38:42.399Z,4.18
2023-01-10T18:41:09.447Z,4.15
2023-01-10T18:43:36.253Z,4.00
2023-01-10T18:46:20.938Z,4.90
2023-01-10T18:48:50.091Z,3.15
2023-01-10T18:51:18.870Z,3.80
2023-01-10T18:53:47.392Z,2.95
2023-01-10T18:56:14.656Z,3.78
2023-01-10T18:58:42.684Z,6.25
2023-01-10T19:01:18.539Z,4.78
2023-01-10T19:03:45.956Z,3.70
2023-01-10T19:06:16.268Z,3.85
2023-01-10T19:08:44.341Z,4.13
2023-01-10T19:11:15.282Z,4.13
2023-01-10T19:13:44.138Z,3.00
2023-01-10T19:16:18.066Z,3.25
2023-01-10T19:18:48.958Z,3.03
2023-01-10T19:21:15.739Z,2.72
2023-01-10T19:23:44.265Z,3.47
2023-01-10T19:26:12.070Z,3.38
2023-01-10T19:28:39.255Z,2.88
2023-01-10T19:31:06.373Z,4.25
2023-01-10T19:33:34.654Z,4.30
2023-01-10T19:36:06.355Z,4.03
2023-01-10T19:38:33.401Z,3.35
2023-01-10T19:41:00.120Z,5.63
2023-01-10T19:43:26.788Z,4.20
2023-01-10T19:45:54.356Z,3.58
2023-01-10T19:48:22.707Z,3.58
2023-01-10T19:50:49.578Z,3.85
2023-01-10T19:53:16.352Z,4.95
2023-01-10T19:55:43.035Z,5.93
2023-01-10T19:58:09.707Z,12.23
2023-01-10T20:00:36.388Z,6.03
2023-01-10T20:03:05.040Z,3.78
2023-01-10T20:05:34.545Z,3.92
2023-01-10T20:08:02.036Z,4.53
2023-01-10T20:10:28.798Z,4.50
2023-01-10T20:12:55.469Z,5.20
2023-01-10T20:15:22.172Z,4.68
2023-01-10T20:17:48.885Z,6.40
2023-01-10T20:20:16.685Z,4.68
2023-01-10T20:22:43.395Z,6.15
2023-01-10T20:25:10.233Z,5.10
2023-01-10T20:27:37.164Z,3.90
2023-01-10T20:30:05.413Z,4.43
2023-01-10T20:32:32.081Z,4.10
2023-01-10T20:34:58.750Z,3.20
2023-01-10T20:37:25.508Z,5.15
2023-01-10T20:39:52.306Z,5.30
2023-01-10T20:42:18.967Z,5.15
2023-01-10T20:44:45.662Z,5.32
2023-01-10T20:47:12.327Z,4.15
2023-01-10T20:49:39.068Z,3.20
2023-01-10T20:52:05.754Z,3.53
2023-01-10T20:54:34.663Z,3.55
2023-01-10T20:57:01.362Z,3.63
2023-01-10T20:59:29.296Z,4.03
2023-01-10T21:01:56.133Z,3.15
2023-01-10T21:04:22.857Z,3.75
2023-01-10T21:06:49.686Z,3.10
2023-01-10T21:09:16.633Z,3.33
2023-01-10T21:11:58.019Z,2.75
2023-01-10T21:14:27.158Z,2.80
2023-01-10T21:16:53.833Z,3.05
2023-01-10T21:19:20.669Z,2.67
2023-01-10T21:21:47.528Z,2.97
2023-01-10T21:24:15.681Z,2.95
2023-01-10T21:26:42.334Z,4.93
2023-01-10T21:29:09.798Z,3.13
2023-01-10T21:31:37.238Z,3.97
2023-01-10T21:34:03.952Z,3.65
2023-01-10T21:36:30.638Z,4.22
2023-01-10T21:38:57.358Z,5.43
2023-01-10T21:41:42.609Z,4.18
2023-01-10T21:44:09.385Z,3.08
2023-01-10T21:46:36.579Z,2.58
2023-01-10T21:49:04.824Z,3.00
2023-01-10T21:51:31.589Z,5.80
2023-01-10T21:53:59.084Z,3.60
2023-01-10T21:56:25.864Z,3.30
2023-01-10T21:58:52.568Z,3.05
2023-01-10T22:01:19.392Z,2.65
2023-01-10T22:03:46.288Z,3.45
2023-01-10T22:06:13.405Z,2.80
2023-01-10T22:08:40.386Z,2.38
2023-01-10T22:11:09.229Z,4.13
2023-01-10T22:13:37.418Z,4.22
2023-01-10T22:16:04.475Z,2.90
2023-01-10T22:18:31.863Z,3.05
2023-01-10T22:20:59.227Z,3.67
2023-01-10T22:23:28.522Z,2.90
2023-01-10T22:26:10.547Z,3.55
2023-01-10T22:28:37.511Z,2.60
2023-01-10T22:31:05.004Z,3.20
2023-01-10T22:33:35.429Z,2.80
2023-01-10T22:36:13.358Z,5.13
2023-01-10T22:38:41.526Z,3.20
2023-01-10T22:41:19.909Z,4.00
2023-01-10T22:43:47.538Z,3.83
2023-01-10T22:46:17.361Z,5.88
2023-01-10T22:48:44.412Z,2.97
2023-01-10T22:51:12.562Z,4.10
2023-01-10T22:53:39.342Z,4.50
2023-01-10T22:56:07.815Z,3.72
2023-01-10T22:58:35.204Z,2.65
2023-01-10T23:01:06.945Z,3.75
2023-01-10T23:03:34.483Z,2.40
2023-01-10T23:06:01.189Z,2.10
2023-01-10T23:08:28.087Z,3.28
2023-01-10T23:10:55.154Z,2.30
2023-01-10T23:13:23.371Z,3.13
2023-01-10T23:16:01.781Z,3.45
2023-01-10T23:18:29.048Z,2.63
2023-01-10T23:20:56.235Z,2.63
2023-01-10T23:23:24.429Z,2.95
2023-01-10T23:26:01.523Z,3.13
2023-01-10T23:28:33.973Z,2.65
2023-01-10T23:31:00.903Z,2.60
2023-01-10T23:33:28.151Z,2.63
2023-01-10T23:35:54.971Z,2.83
2023-01-10T23:38:21.671Z,2.13
2023-01-10T23:40:48.645Z,2.50
2023-01-10T23:43:15.337Z,2.88
2023-01-10T23:45:43.649Z,2.13
2023-01-10T23:48:11.714Z,2.47
2023-01-10T23:50:38.926Z,2.40
2023-01-10T23:53:05.929Z,2.53
2023-01-10T23:55:33.398Z,2.47
2023-01-10T23:58:00.189Z,1.90
